Turney, Missouri
Current Conditions -  °F | °C
As of 11:35 AM on Friday 28 Nov 2014 (Local Time) from KGPH Reporting Station
Clear Clear  
Wind Chill: 43°   Ceiling: Unl
Heat Index: 48°   Visibility: 10mi
Dew Point: 30°   Wind: 13mph
Humidity: 50%   Direction: 210°SSW
Pressure: 29.93"   Gusts: 21mph
Location:  39.63°N, 94.32°W
Report Text: KGPH 281735Z AUTO 21011G18KT 10SM CLR 09/M01 A2993 RMK AO2
Loading
Personal Weather Stations






























Interactive Weather Map New forecast layout! Learn more

10-Day Weather Forecast

Advertisements
Track Severe Weather on mobile